Flight Track Log - Related Links

Times and Time Zones

All times are in EDT time to prevent confusion due to time zone crossing. See the N556VP flight status page for this flight to view local times or setup timezone preferences in your user account.

Time Position Orientation Groundspeed Altitude Reporting Facility
EDT Latitude Longitude Course Direction KTS MPH feet Rate Location/Type
Fri 01:42:18 PM 32.0906 -102.3664 18° North 230 265 10,700  Level Fort Worth Center
Fri 01:43:18 PM 32.0922 -102.2733 89° East 197 227 12,700 1,650 Climbing Fort Worth Center
Fri 01:44:18 PM 32.0758 -102.1522 99° East 293 337 14,000 1,636 Climbing Fort Worth Center
Fri 01:45:00 PM 31.8697 -101.3593 95° East  Level FlightAware Approximate
Fri 01:45:19 PM 32.0639 -102.0242 96° East 322 371 16,000  Level Fort Worth Center
Fri 01:46:00 PM 31.8570 -101.2193 97° East  Level FlightAware Approximate
Fri 01:46:18 PM 32.0519 -101.8961 96° East 369 425 17,800  Level Fort Worth Center
Fri 01:47:18 PM 32.0358 -101.7606 98° East 396 456 19,800 1,983 Climbing Fort Worth Center
Fri 01:48:19 PM 32.0233 -101.6350 97° East 396 456 21,800 2,000 Climbing Fort Worth Center
Fri 01:49:18 PM 32.0111 -101.4997 96° East 401 461 23,800 2,017 Climbing Fort Worth Center
Fri 01:50:18 PM 31.9944 -101.3644 98° East 411 473 25,800 1,587 Climbing Fort Worth Center
Fri 01:51:19 PM 31.9819 -101.2292 96° East 411 473 27,000 600 Climbing Fort Worth Center
Fri 01:52:18 PM 31.9697 -101.0842 96° East 419 482 27,000  Level Fort Worth Center
Fri 01:53:18 PM 31.9586 -100.9639 96° East 439 505 27,000  Level Fort Worth Center
Fri 01:54:18 PM 31.9361 -100.7914 99° East 458 527 27,000  Level Fort Worth Center
Fri 01:55:18 PM 31.9175 -100.6219 97° East 476 548 27,000  Level Fort Worth Center
Fri 01:56:18 PM 31.9025 -100.4747 97° East 481 554 27,000  Level Fort Worth Center
Fri 01:57:19 PM 31.8833 -100.3197 98° East 481 554 27,000  Level Fort Worth Center
Fri 01:58:18 PM 31.8678 -100.1653 97° East 481 554 27,000  Level Fort Worth Center
Fri 01:59:18 PM 31.8483 -100.0106 98° East 481 554 27,000  Level Fort Worth Center
Fri 02:00:19 PM 31.8389 -99.8539 94° East 481 554 27,000  Level Fort Worth Center
Fri 02:01:18 PM 31.8439 -99.7000 88° East 481 554 27,000  Level Fort Worth Center
Fri 02:02:18 PM 31.8278 -99.5456 97° East 481 554 27,000  Level Fort Worth Center
Fri 02:03:19 PM 31.8097 -99.3692 97° East 481 554 27,000  Level Fort Worth Center
Fri 02:04:18 PM 31.7911 -99.2172 98° East 481 554 27,000  Level Fort Worth Center
Fri 02:05:18 PM 31.7722 -99.0653 98° East 481 554 27,000  Level Fort Worth Center
Fri 02:06:19 PM 31.7533 -98.9086 98° East 481 554 27,000  Level Fort Worth Center
Fri 02:07:18 PM 31.7300 -98.7544 100° East 476 548 27,000  Level Fort Worth Center
Fri 02:08:18 PM 31.7108 -98.6050 99° East 470 541 27,000  Level Fort Worth Center
Fri 02:09:19 PM 31.6850 -98.4583 102° East 470 541 27,000  Level Fort Worth Center
Fri 02:10:18 PM 31.6631 -98.2994 99° East 470 541 27,000  Level Fort Worth Center
Fri 02:11:18 PM 31.6494 -98.1431 96° East 470 541 27,000  Level Fort Worth Center
Fri 02:12:19 PM 31.6294 -97.9942 99° East 470 541 27,000  Level Fort Worth Center
Fri 02:13:18 PM 31.6156 -97.8403 96° East 465 535 27,000  Level Fort Worth Center
Fri 02:14:18 PM 31.5950 -97.6889 99° East 470 541 27,000  Level Fort Worth Center
Fri 02:15:19 PM 31.5722 -97.5353 100° East 470 541 27,000  Level Fort Worth Center
Fri 02:16:18 PM 31.5556 -97.3986 98° East 470 541 27,000  Level Fort Worth Center
Fri 02:17:13 PM 31.5350 -97.2497 99° East 472 543 27,000  Level Houston Center
Fri 02:18:15 PM 31.5147 -97.0956 99° East 471 542 27,000  Level Houston Center
Fri 02:19:17 PM 31.4956 -96.9425 98° East 469 540 27,000  Level Houston Center
Fri 02:20:19 PM 31.4747 -96.7908 99° East 466 536 27,000  Level Houston Center
Fri 02:21:21 PM 31.4542 -96.6408 99° East 461 531 27,000  Level Houston Center
Fri 02:22:23 PM 31.4328 -96.4914 99° East 458 527 27,000  Level Houston Center
Fri 02:23:25 PM 31.4106 -96.3422 100° East 460 529 27,000  Level Houston Center
Fri 02:24:29 PM 31.3900 -96.1917 99° East 463 533 27,000 387 Level Houston Center
Fri 02:25:29 PM 31.3675 -96.0331 99° East 459 528 27,800 732 Climbing Houston Center
Fri 02:26:32 PM 31.3478 -95.8864 99° East 457 526 28,500 576 Climbing Houston Center
Fri 02:27:34 PM 31.3217 -95.7375 102° East 465 535 29,000 242 Climbing Houston Center
Fri 02:28:36 PM 31.2900 -95.5558 101° East 475 547 29,000  Level Houston Center
Fri 02:29:38 PM 31.2656 -95.4022 101° East 478 550 29,000  Level Houston Center
Fri 02:30:40 PM 31.2397 -95.2489 101° East 481 554 29,000  Level Houston Center
Fri 02:31:42 PM 31.2144 -95.0969 101° East 477 549 29,000  Level Houston Center
Fri 02:32:44 PM 31.1903 -94.9450 100° East 480 552 29,000  Level Houston Center
Fri 02:33:46 PM 31.1656 -94.7789 100° East 486 559 29,000  Level Houston Center
Fri 02:34:49 PM 31.1375 -94.6153 101° East 485 558 29,000  Level Houston Center
Fri 02:35:51 PM 31.1133 -94.4642 101° East 478 550 29,000  Level Houston Center
Fri 02:36:53 PM 31.0889 -94.3117 101° East 479 551 29,000  Level Houston Center
Fri 02:37:55 PM 31.0603 -94.1281 100° East 480 552 29,000  Level Houston Center
Fri 02:38:57 PM 31.0372 -93.9753 100° East 480 552 29,000  Level Houston Center
Fri 02:39:59 PM 31.0161 -93.8303 100° East 479 551 29,000  Level Houston Center
Fri 02:41:01 PM 30.9928 -93.6767 100° East 480 552 29,000  Level Houston Center
Fri 02:42:03 PM 30.9703 -93.5233 100° East 480 552 29,000 -97 Level Houston Center
Fri 02:43:05 PM 30.9428 -93.3389 100° East 480 552 28,800 -480 Descending Houston Center
Fri 02:44:08 PM 30.9192 -93.1833 100° East 484 557 28,000 -672 Descending Houston Center
Fri 02:45:10 PM 30.8953 -93.0275 100° East 485 558 27,400 -919 Descending Houston Center
Fri 02:46:12 PM 30.8708 -92.8664 100° East 472 543 26,100 -1,355 Descending Houston Center
Fri 02:47:14 PM 30.8519 -92.7206 99° East 464 534 24,600 -1,008 Descending Houston Center
Fri 02:48:17 PM 30.8328 -92.5819 99° East 445 512 24,000 -290 Descending Houston Center
Fri 02:49:18 PM 30.8114 -92.4519 101° East 422 486 24,000 -488 Level Houston Center
Fri 02:50:20 PM 30.7839 -92.2944 101° East 417 480 23,000 -1,065 Descending Houston Center
Fri 02:51:22 PM 30.7608 -92.1611 101° East 423 487 21,800 -1,500 Descending Houston Center
Fri 02:52:24 PM 30.7411 -92.0350 100° East 407 468 19,900 -1,920 Descending Houston Center
Fri 02:53:27 PM 30.7197 -91.9125 101° East 393 452 17,800 -1,872 Descending Houston Center
Fri 02:54:29 PM 30.7006 -91.7908 100° East 386 444 16,000 -1,887 Descending Houston Center
Fri 02:55:31 PM 30.6786 -91.6758 102° East 371 427 13,900 -2,516 Descending Houston Center
Fri 02:56:33 PM 30.6611 -91.5422 99° East 353 406 10,800 -2,903 Descending Houston Center
Fri 02:57:35 PM 30.6669 -91.4347 86° East 339 390 7,900 -2,710 Descending Houston Center
Fri 02:58:37 PM 30.6731 -91.3428 86° East 293 337 5,200 -1,790 Descending Houston Center
Fri 02:59:39 PM 30.6747 -91.2592 89° East 284 327 4,200 -968 Descending Houston Center
Fri 03:01:00 PM 30.5508 -91.1637 101° East  Level Estimated
Fri 03:08:00 PM 30.5329 -91.1499 101° East  Level Estimated
Fri 03:09:00 PM 30.5329 -91.1499 101° East  Level Estimated

Login

Don't have an account? Register now (free) for customized features, flight alerts, and more!